createdAt,value
2019-04-27T00:00:00.080Z,77.50
2019-04-27T00:02:45.585Z,76.70
2019-04-27T00:05:35.471Z,76.60
2019-04-27T00:08:24.037Z,76.50
2019-04-27T00:11:08.676Z,76.80
2019-04-27T00:13:40.523Z,76.80
2019-04-27T00:16:34.400Z,76.80
2019-04-27T00:19:27.344Z,76.90
2019-04-27T00:22:28.248Z,77.20
2019-04-27T00:24:57.980Z,77.10
2019-04-27T00:27:27.637Z,77.30
2019-04-27T00:29:57.349Z,77.30
2019-04-27T00:32:27.068Z,77.30
2019-04-27T00:34:56.788Z,77.80
2019-04-27T00:37:44.909Z,77.60
2019-04-27T00:40:23.599Z,78.20
2019-04-27T00:42:54.155Z,77.40
2019-04-27T00:45:23.979Z,77.30
2019-04-27T00:47:59.301Z,77.10
2019-04-27T00:50:25.141Z,77.30
2019-04-27T00:52:54.906Z,77.20
2019-04-27T00:55:24.614Z,76.50
2019-04-27T00:58:06.089Z,76.40
2019-04-27T01:00:53.981Z,75.50
2019-04-27T01:03:35.267Z,75.60
2019-04-27T01:06:05.297Z,75.40
2019-04-27T01:08:35.002Z,76.00
2019-04-27T01:11:04.921Z,75.80
2019-04-27T01:13:35.028Z,75.60
2019-04-27T01:16:05.589Z,76.20
2019-04-27T01:18:35.288Z,77.00
2019-04-27T01:21:04.993Z,76.00
2019-04-27T01:23:34.749Z,76.20
2019-04-27T01:26:29.194Z,76.30
2019-04-27T01:29:03.127Z,76.70
2019-04-27T01:31:32.796Z,77.20
2019-04-27T01:34:02.564Z,77.00
2019-04-27T01:36:32.267Z,77.30
2019-04-27T01:39:01.977Z,77.20
2019-04-27T01:41:31.722Z,76.90
2019-04-27T01:44:01.455Z,77.40
2019-04-27T01:46:31.166Z,77.80
2019-04-27T01:49:00.948Z,77.60
2019-04-27T01:51:30.764Z,77.30
2019-04-27T01:54:00.487Z,77.20
2019-04-27T01:56:30.197Z,77.20
2019-04-27T01:58:59.921Z,77.60
2019-04-27T02:01:48.962Z,77.50
2019-04-27T02:04:34.451Z,77.70
2019-04-27T02:07:05.843Z,77.50
2019-04-27T02:09:35.676Z,77.70
2019-04-27T02:12:05.623Z,77.10
2019-04-27T02:14:35.387Z,77.00
2019-04-27T02:17:05.173Z,76.80
2019-04-27T02:19:34.942Z,77.00
2019-04-27T02:22:04.790Z,77.50
2019-04-27T02:24:34.477Z,76.80
2019-04-27T02:27:04.195Z,77.30
2019-04-27T02:29:39.395Z,77.30
2019-04-27T02:32:20.430Z,76.90
2019-04-27T02:35:15.033Z,76.90
2019-04-27T02:37:44.746Z,77.10
2019-04-27T02:40:51.349Z,76.90
2019-04-27T02:43:23.460Z,76.80
2019-04-27T02:45:53.185Z,76.70
2019-04-27T02:48:22.892Z,76.80
2019-04-27T02:50:54.553Z,76.20
2019-04-27T02:53:41.782Z,76.30
2019-04-27T02:56:11.471Z,76.10
2019-04-27T02:58:41.223Z,76.20
2019-04-27T03:02:10.910Z,76.40
2019-04-27T03:04:40.706Z,77.10
2019-04-27T03:07:11.403Z,77.40
2019-04-27T03:09:41.353Z,77.20
2019-04-27T03:12:11.401Z,77.50
2019-04-27T03:14:57.030Z,77.70
2019-04-27T03:17:49.537Z,78.00
2019-04-27T03:20:46.978Z,79.10
2019-04-27T03:23:16.949Z,79.20
2019-04-27T03:26:10.797Z,79.30
2019-04-27T03:28:40.529Z,79.60
2019-04-27T03:31:13.405Z,79.80
2019-04-27T03:33:43.169Z,80.50
2019-04-27T03:36:13.410Z,81.40
2019-04-27T03:38:43.366Z,80.30
2019-04-27T03:41:13.083Z,80.30
2019-04-27T03:43:42.891Z,80.50
2019-04-27T03:46:12.622Z,80.30
2019-04-27T03:48:42.318Z,80.70
2019-04-27T03:51:43.270Z,81.40
2019-04-27T03:54:22.170Z,81.30
2019-04-27T03:57:05.219Z,81.10
2019-04-27T03:59:52.998Z,81.80
2019-04-27T04:02:22.693Z,82.30
2019-04-27T04:04:52.535Z,82.50
2019-04-27T04:07:22.288Z,83.40
2019-04-27T04:09:52.147Z,83.70
2019-04-27T04:12:40.844Z,85.00
2019-04-27T04:15:13.904Z,84.20
2019-04-27T04:17:43.609Z,84.10
2019-04-27T04:20:13.423Z,84.40
2019-04-27T04:22:43.153Z,84.30
2019-04-27T04:25:12.989Z,83.80
2019-04-27T04:27:43.014Z,85.30
2019-04-27T04:30:12.872Z,82.90
2019-04-27T04:32:42.634Z,81.60
2019-04-27T04:35:24.159Z,82.40
2019-04-27T04:37:53.888Z,82.70
2019-04-27T04:40:30.905Z,82.80
2019-04-27T04:43:10.871Z,82.40
2019-04-27T04:45:50.055Z,82.20
2019-04-27T04:48:20.050Z,83.20
2019-04-27T04:50:50.223Z,83.30
2019-04-27T04:53:20.760Z,83.20
2019-04-27T04:55:50.679Z,82.70
2019-04-27T04:58:21.181Z,83.40
2019-04-27T05:00:51.016Z,81.70
2019-04-27T05:03:21.896Z,81.30
2019-04-27T05:05:51.759Z,82.30
2019-04-27T05:08:21.463Z,82.30
2019-04-27T05:10:51.139Z,81.50
2019-04-27T05:13:20.801Z,81.10
2019-04-27T05:15:50.544Z,81.80
2019-04-27T05:18:20.286Z,82.20
2019-04-27T05:21:08.774Z,82.80
2019-04-27T05:23:38.824Z,81.50
2019-04-27T05:26:09.216Z,81.70
2019-04-27T05:28:40.804Z,82.80
2019-04-27T05:31:10.379Z,82.30
2019-04-27T05:33:40.195Z,82.70
2019-04-27T05:36:09.890Z,82.10
2019-04-27T05:38:45.727Z,81.30
2019-04-27T05:41:10.808Z,82.70
2019-04-27T05:43:46.472Z,83.30
2019-04-27T05:46:44.259Z,81.80
2019-04-27T05:49:29.356Z,81.50
2019-04-27T05:52:00.608Z,81.70
2019-04-27T05:54:30.263Z,81.70
2019-04-27T05:56:59.999Z,82.30
2019-04-27T05:59:29.962Z,81.50
2019-04-27T06:01:59.788Z,82.40
2019-04-27T06:04:29.472Z,81.20
2019-04-27T06:07:01.031Z,81.10
2019-04-27T06:09:30.584Z,81.30
2019-04-27T06:12:00.348Z,81.50
2019-04-27T06:14:30.084Z,81.90
2019-04-27T06:16:59.800Z,82.60
2019-04-27T06:19:29.567Z,81.70
2019-04-27T06:22:03.341Z,81.60
2019-04-27T06:24:33.089Z,82.20
2019-04-27T06:27:02.789Z,82.90
2019-04-27T06:29:32.565Z,82.60
2019-04-27T06:32:02.240Z,83.10
2019-04-27T06:34:32.065Z,83.20
2019-04-27T06:37:03.241Z,82.90
2019-04-27T06:39:32.992Z,84.00
2019-04-27T06:42:10.252Z,83.70
2019-04-27T06:44:34.210Z,83.10
2019-04-27T06:47:03.868Z,83.10
2019-04-27T06:49:33.690Z,82.40
2019-04-27T06:52:03.563Z,82.70
2019-04-27T06:54:33.276Z,83.20
2019-04-27T06:57:03.208Z,83.00
2019-04-27T06:59:33.130Z,83.10
2019-04-27T07:02:03.109Z,84.00
2019-04-27T07:04:32.839Z,83.00
2019-04-27T07:07:03.877Z,82.70
2019-04-27T07:09:33.640Z,83.90
2019-04-27T07:12:03.332Z,84.10
2019-04-27T07:14:33.165Z,83.90
2019-04-27T07:17:02.906Z,84.00
2019-04-27T07:19:32.669Z,84.30
2019-04-27T07:22:02.369Z,84.50
2019-04-27T07:24:32.055Z,84.50
2019-04-27T07:27:01.747Z,85.00
2019-04-27T07:29:31.436Z,84.30
2019-04-27T07:32:01.138Z,84.90
2019-04-27T07:34:30.839Z,85.30
2019-04-27T07:37:00.550Z,84.10
2019-04-27T07:39:30.263Z,84.40
2019-04-27T07:41:59.926Z,83.60
2019-04-27T07:44:53.022Z,85.50
2019-04-27T07:47:30.726Z,82.60
2019-04-27T07:49:59.297Z,83.20
2019-04-27T07:52:30.149Z,84.20
2019-04-27T07:54:59.795Z,83.80
2019-04-27T07:57:29.483Z,85.40
2019-04-27T07:59:59.659Z,82.60
2019-04-27T08:02:29.514Z,84.30
2019-04-27T08:04:59.591Z,82.90
2019-04-27T08:07:29.413Z,85.40
2019-04-27T08:10:01.397Z,84.00
2019-04-27T08:12:30.419Z,84.10
2019-04-27T08:15:00.308Z,85.10
2019-04-27T08:17:30.212Z,86.30
2019-04-27T08:20:00.001Z,85.10
2019-04-27T08:22:29.674Z,84.40
2019-04-27T08:24:59.604Z,84.40
2019-04-27T08:27:34.507Z,87.10
2019-04-27T08:30:39.384Z,86.80
2019-04-27T08:33:10.184Z,86.10
2019-04-27T08:35:40.693Z,85.30
2019-04-27T08:38:11.901Z,85.60
2019-04-27T08:40:41.594Z,86.90
2019-04-27T08:43:11.301Z,86.40
2019-04-27T08:45:46.349Z,86.20
2019-04-27T08:48:33.399Z,85.40
2019-04-27T08:50:50.406Z,85.20
2019-04-27T08:53:20.098Z,85.20
2019-04-27T08:55:52.686Z,84.80
2019-04-27T08:58:21.410Z,88.00
2019-04-27T09:00:52.375Z,86.90
2019-04-27T09:03:22.124Z,85.50
2019-04-27T09:05:51.811Z,87.30
2019-04-27T09:08:43.187Z,86.40
2019-04-27T09:11:20.578Z,85.30
2019-04-27T09:13:59.047Z,85.50
2019-04-27T09:16:40.436Z,86.70
2019-04-27T09:19:29.209Z,86.80
2019-04-27T09:22:12.280Z,86.40
2019-04-27T09:24:33.390Z,88.70
2019-04-27T09:27:05.152Z,87.10
2019-04-27T09:29:34.865Z,88.60
2019-04-27T09:32:05.080Z,87.00
2019-04-27T09:34:36.528Z,86.90
2019-04-27T09:37:06.416Z,86.60
2019-04-27T09:39:38.188Z,86.70
2019-04-27T09:42:07.919Z,87.30
2019-04-27T09:44:37.657Z,87.60
2019-04-27T09:47:07.394Z,89.30
2019-04-27T09:49:38.437Z,88.30
2019-04-27T09:52:08.449Z,86.40
2019-04-27T09:54:38.214Z,88.20
2019-04-27T09:57:07.843Z,89.60
2019-04-27T09:59:39.643Z,89.30
2019-04-27T10:02:11.732Z,86.10
2019-04-27T10:04:41.360Z,88.50
2019-04-27T10:07:11.151Z,87.10
2019-04-27T10:09:40.780Z,87.10
2019-04-27T10:12:12.529Z,87.20
2019-04-27T10:14:42.275Z,86.00
2019-04-27T10:17:11.987Z,88.50
2019-04-27T10:19:47.500Z,87.20
2019-04-27T10:22:18.214Z,90.00
2019-04-27T10:24:47.875Z,87.60
2019-04-27T10:27:17.544Z,88.50
2019-04-27T10:29:47.292Z,87.60
2019-04-27T10:32:17.022Z,88.90
2019-04-27T10:34:49.587Z,89.50
2019-04-27T10:37:19.333Z,88.50
2019-04-27T10:39:49.068Z,89.70
2019-04-27T10:42:18.757Z,89.30
2019-04-27T10:44:48.445Z,90.20
2019-04-27T10:47:18.086Z,89.80
2019-04-27T10:49:48.468Z,90.10
2019-04-27T10:52:21.492Z,90.20
2019-04-27T10:54:52.820Z,90.30
2019-04-27T10:57:22.499Z,90.60
2019-04-27T10:59:52.173Z,90.30
2019-04-27T11:02:21.845Z,89.80
2019-04-27T11:05:03.149Z,90.30
2019-04-27T11:07:36.268Z,90.40
2019-04-27T11:10:09.432Z,91.00
2019-04-27T11:12:39.096Z,89.20
2019-04-27T11:15:09.440Z,89.80
2019-04-27T11:17:39.179Z,90.30
2019-04-27T11:20:09.100Z,89.20
2019-04-27T11:22:38.832Z,89.20
2019-04-27T11:25:10.506Z,88.00
2019-04-27T11:27:40.184Z,89.40
2019-04-27T11:30:10.705Z,90.10
2019-04-27T11:32:41.797Z,89.90
2019-04-27T11:35:33.499Z,88.80
2019-04-27T11:38:03.162Z,89.00
2019-04-27T11:40:32.954Z,89.50
2019-04-27T11:43:02.602Z,90.20
2019-04-27T11:45:32.555Z,89.30
2019-04-27T11:48:02.203Z,90.30
2019-04-27T11:50:31.851Z,90.80
2019-04-27T11:53:01.536Z,91.20
2019-04-27T11:55:31.230Z,90.50
2019-04-27T11:58:00.850Z,88.60
2019-04-27T12:00:31.130Z,89.80
2019-04-27T12:03:00.904Z,90.40
2019-04-27T12:05:30.527Z,88.50
2019-04-27T12:08:00.314Z,89.30
2019-04-27T12:10:29.966Z,87.10
2019-04-27T12:12:59.648Z,87.90
2019-04-27T12:15:29.363Z,85.40
2019-04-27T12:17:58.999Z,86.60
2019-04-27T12:20:28.711Z,85.60
2019-04-27T12:22:58.367Z,85.50
2019-04-27T12:25:28.090Z,86.70
2019-04-27T12:28:15.185Z,82.00
2019-04-27T12:30:58.003Z,83.50
2019-04-27T12:33:27.834Z,80.10
2019-04-27T12:35:57.510Z,83.80
2019-04-27T12:38:28.320Z,79.10
2019-04-27T12:40:57.988Z,83.00
2019-04-27T12:43:27.673Z,78.10
2019-04-27T12:45:57.421Z,77.90
2019-04-27T12:48:27.118Z,75.60
2019-04-27T12:50:56.951Z,75.20
2019-04-27T12:53:48.313Z,76.00
2019-04-27T12:56:25.569Z,78.30
2019-04-27T12:59:07.564Z,76.60
2019-04-27T13:01:37.291Z,75.20
2019-04-27T13:04:07.038Z,75.60
2019-04-27T13:06:36.782Z,75.00
2019-04-27T13:09:08.561Z,77.80
2019-04-27T13:11:38.264Z,79.70
2019-04-27T13:14:08.031Z,78.60
2019-04-27T13:16:37.774Z,74.10
2019-04-27T13:19:07.454Z,72.50
2019-04-27T13:21:37.092Z,71.60
2019-04-27T13:24:07.088Z,70.10
2019-04-27T13:26:38.114Z,70.70
2019-04-27T13:29:07.774Z,68.50
2019-04-27T13:31:37.567Z,68.10
2019-04-27T13:34:07.327Z,68.50
2019-04-27T13:36:37.092Z,69.50
2019-04-27T13:39:08.081Z,72.30
2019-04-27T13:41:37.731Z,69.70
2019-04-27T13:44:07.437Z,69.60
2019-04-27T13:46:55.984Z,70.20
2019-04-27T13:49:56.285Z,65.90
2019-04-27T13:52:29.914Z,66.00
2019-04-27T13:54:59.440Z,67.00
2019-04-27T13:57:29.127Z,64.50
2019-04-27T13:59:58.830Z,67.00
2019-04-27T14:02:32.269Z,63.90
2019-04-27T14:05:00.057Z,62.20
2019-04-27T14:07:29.743Z,64.20
2019-04-27T14:10:00.031Z,66.70
2019-04-27T14:12:29.659Z,60.10
2019-04-27T14:14:59.375Z,62.00
2019-04-27T14:17:30.136Z,62.80
2019-04-27T14:19:59.839Z,62.60
2019-04-27T14:22:31.541Z,64.20
2019-04-27T14:25:01.205Z,59.40
2019-04-27T14:27:38.526Z,60.90
2019-04-27T14:30:09.091Z,58.80
2019-04-27T14:32:39.047Z,58.80
2019-04-27T14:35:09.259Z,60.00
2019-04-27T14:37:40.317Z,60.00
2019-04-27T14:40:10.575Z,61.50
2019-04-27T14:42:40.238Z,61.50
2019-04-27T14:45:10.444Z,58.60
2019-04-27T14:47:41.460Z,58.20
2019-04-27T14:50:11.267Z,58.30
2019-04-27T14:52:41.034Z,57.30
2019-04-27T14:55:10.757Z,57.90
2019-04-27T14:57:40.436Z,60.00
2019-04-27T15:00:12.304Z,58.30
2019-04-27T15:02:41.965Z,58.70
2019-04-27T15:05:13.363Z,59.00
2019-04-27T15:07:44.525Z,59.00
2019-04-27T15:10:16.121Z,57.50
2019-04-27T15:12:46.041Z,56.70
2019-04-27T15:15:16.065Z,56.80
2019-04-27T15:17:45.784Z,56.50
2019-04-27T15:20:22.639Z,56.10
2019-04-27T15:22:56.980Z,56.40
2019-04-27T15:25:25.948Z,57.80
2019-04-27T15:28:01.417Z,53.90
2019-04-27T15:30:49.168Z,54.90
2019-04-27T15:33:53.305Z,55.50
2019-04-27T15:36:35.854Z,52.20
2019-04-27T15:39:10.941Z,52.80
2019-04-27T15:41:48.443Z,53.80
2019-04-27T15:44:18.742Z,52.30
2019-04-27T15:46:48.582Z,53.40
2019-04-27T15:49:18.248Z,52.70
2019-04-27T15:51:50.741Z,52.90
2019-04-27T15:54:22.377Z,53.30
2019-04-27T15:56:50.617Z,53.40
2019-04-27T15:59:21.984Z,54.20
2019-04-27T16:01:51.700Z,52.50
2019-04-27T16:04:21.394Z,53.30
2019-04-27T16:06:51.129Z,54.00
2019-04-27T16:09:25.395Z,53.50
2019-04-27T16:11:57.875Z,52.60
2019-04-27T16:14:23.964Z,52.50
2019-04-27T16:16:53.735Z,52.50
2019-04-27T16:19:23.390Z,52.70
2019-04-27T16:21:54.134Z,52.90
2019-04-27T16:24:24.227Z,51.40
2019-04-27T16:26:56.063Z,51.90
2019-04-27T16:29:28.032Z,50.00
2019-04-27T16:31:58.253Z,50.80
2019-04-27T16:34:28.654Z,51.20
2019-04-27T16:36:59.142Z,52.10
2019-04-27T16:39:28.865Z,52.90
2019-04-27T16:41:58.818Z,53.50
2019-04-27T16:44:28.655Z,53.00
2019-04-27T16:46:58.385Z,53.70
2019-04-27T16:49:28.995Z,54.00
2019-04-27T16:51:59.143Z,53.70
2019-04-27T16:54:28.829Z,53.60
2019-04-27T16:57:03.304Z,55.80
2019-04-27T16:59:44.082Z,54.30
2019-04-27T17:02:01.689Z,53.70
2019-04-27T17:04:31.553Z,54.00
2019-04-27T17:07:01.241Z,54.70
2019-04-27T17:09:30.914Z,55.90
2019-04-27T17:12:00.737Z,56.50
2019-04-27T17:15:10.652Z,56.60
2019-04-27T17:18:03.901Z,57.10
2019-04-27T17:20:33.676Z,57.70
2019-04-27T17:23:03.343Z,57.70
2019-04-27T17:25:39.181Z,57.60
2019-04-27T17:28:08.032Z,58.40
2019-04-27T17:30:41.512Z,59.10
2019-04-27T17:33:30.910Z,60.00
2019-04-27T17:36:02.792Z,61.90
2019-04-27T17:38:31.960Z,61.00
2019-04-27T17:41:04.665Z,58.50
2019-04-27T17:43:33.033Z,59.20
2019-04-27T17:46:02.670Z,57.80
2019-04-27T17:48:32.408Z,57.20
2019-04-27T17:51:03.507Z,58.40
2019-04-27T17:53:33.362Z,57.70
2019-04-27T17:56:05.870Z,59.50
2019-04-27T17:58:39.754Z,59.40
2019-04-27T18:01:14.101Z,57.60
2019-04-27T18:03:41.370Z,57.20
2019-04-27T18:06:11.028Z,57.60
2019-04-27T18:08:40.688Z,57.90
2019-04-27T18:11:10.387Z,58.10
2019-04-27T18:13:42.114Z,58.00
2019-04-27T18:16:12.384Z,58.40
2019-04-27T18:19:07.844Z,59.30
2019-04-27T18:21:41.669Z,60.70
2019-04-27T18:24:15.871Z,61.20
2019-04-27T18:27:00.520Z,61.20
2019-04-27T18:29:30.858Z,63.30
2019-04-27T18:31:59.689Z,65.00
2019-04-27T18:34:29.409Z,66.60
2019-04-27T18:36:59.105Z,68.80
2019-04-27T18:39:28.843Z,69.80
2019-04-27T18:41:58.608Z,71.70
2019-04-27T18:44:31.702Z,71.70
2019-04-27T18:47:02.313Z,72.40
2019-04-27T18:49:50.078Z,74.40
2019-04-27T18:52:42.407Z,74.40
2019-04-27T18:55:09.277Z,73.80
2019-04-27T18:57:40.337Z,74.90
2019-04-27T19:00:13.582Z,75.30
2019-04-27T19:02:43.424Z,76.70
2019-04-27T19:05:13.202Z,77.50
2019-04-27T19:07:42.966Z,78.90
2019-04-27T19:10:12.892Z,79.80
2019-04-27T19:12:42.602Z,80.50
2019-04-27T19:15:13.889Z,81.30
2019-04-27T19:17:43.579Z,81.70
2019-04-27T19:20:13.387Z,82.00
2019-04-27T19:22:43.107Z,81.70
2019-04-27T19:25:18.325Z,81.50
2019-04-27T19:28:22.353Z,79.90
2019-04-27T19:30:57.682Z,79.90
2019-04-27T19:33:29.164Z,78.20
2019-04-27T19:35:59.805Z,77.00
2019-04-27T19:38:29.524Z,78.50
2019-04-27T19:40:59.278Z,78.80
2019-04-27T19:43:29.002Z,78.20
2019-04-27T19:45:58.661Z,78.60
2019-04-27T19:48:28.687Z,78.90
2019-04-27T19:51:00.072Z,79.00
2019-04-27T19:53:29.880Z,78.40
2019-04-27T19:56:02.372Z,77.50
2019-04-27T19:58:38.070Z,77.70
2019-04-27T20:01:15.065Z,77.20
2019-04-27T20:04:12.661Z,76.90
2019-04-27T20:06:42.420Z,77.20
2019-04-27T20:09:23.781Z,78.30
2019-04-27T20:11:53.529Z,78.10
2019-04-27T20:14:23.265Z,77.70
2019-04-27T20:16:53.005Z,78.00
2019-04-27T20:19:22.647Z,78.90
2019-04-27T20:21:54.029Z,78.30
2019-04-27T20:24:23.769Z,77.90
2019-04-27T20:26:53.512Z,78.00
2019-04-27T20:29:23.259Z,77.40
2019-04-27T20:32:01.208Z,77.20
2019-04-27T20:34:31.116Z,77.00
2019-04-27T20:37:01.635Z,76.90
2019-04-27T20:39:31.499Z,77.30
2019-04-27T20:42:01.227Z,77.20
2019-04-27T20:44:31.215Z,79.10
2019-04-27T20:47:01.293Z,79.40
2019-04-27T20:49:31.067Z,78.80
2019-04-27T20:52:13.187Z,78.10
2019-04-27T20:54:43.040Z,80.90
2019-04-27T20:57:12.774Z,81.30
2019-04-27T20:59:42.546Z,82.10
2019-04-27T21:02:49.477Z,83.70
2019-04-27T21:05:43.844Z,83.80
2019-04-27T21:08:15.508Z,83.50
2019-04-27T21:10:45.249Z,84.60
2019-04-27T21:13:15.628Z,84.00
2019-04-27T21:15:45.391Z,85.50
2019-04-27T21:18:15.201Z,85.50
2019-04-27T21:20:44.891Z,85.00
2019-04-27T21:23:14.603Z,84.80
2019-04-27T21:25:44.397Z,85.20
2019-04-27T21:28:18.078Z,85.10
2019-04-27T21:30:45.498Z,84.80
2019-04-27T21:33:15.358Z,83.40
2019-04-27T21:35:46.786Z,83.50
2019-04-27T21:38:16.666Z,84.30
2019-04-27T21:40:46.368Z,84.90
2019-04-27T21:43:21.657Z,84.00
2019-04-27T21:45:51.493Z,82.90
2019-04-27T21:48:21.374Z,82.00
2019-04-27T21:50:51.618Z,82.40
2019-04-27T21:53:28.538Z,81.90
2019-04-27T21:56:02.764Z,83.80
2019-04-27T21:58:33.392Z,83.10
2019-04-27T22:01:22.831Z,83.00
2019-04-27T22:03:52.880Z,83.10
2019-04-27T22:06:22.675Z,81.40
2019-04-27T22:08:52.428Z,80.30
2019-04-27T22:11:22.262Z,82.10
2019-04-27T22:13:52.163Z,81.00
2019-04-27T22:16:21.917Z,81.00
2019-04-27T22:18:52.063Z,80.90
2019-04-27T22:21:21.883Z,80.40
2019-04-27T22:24:00.893Z,81.00
2019-04-27T22:26:31.438Z,80.30
2019-04-27T22:29:01.722Z,80.60
2019-04-27T22:31:31.468Z,80.30
2019-04-27T22:34:01.828Z,80.00
2019-04-27T22:36:31.690Z,80.10
2019-04-27T22:39:11.625Z,79.60
2019-04-27T22:41:53.322Z,79.80
2019-04-27T22:44:37.222Z,79.00
2019-04-27T22:47:06.955Z,80.30
2019-04-27T22:49:36.721Z,79.60
2019-04-27T22:52:06.458Z,79.70
2019-04-27T22:54:36.287Z,79.70
2019-04-27T22:57:13.893Z,79.80
2019-04-27T23:00:03.657Z,80.10
2019-04-27T23:02:54.314Z,80.20
2019-04-27T23:05:24.092Z,79.40
2019-04-27T23:07:53.853Z,79.40
2019-04-27T23:10:25.484Z,79.50
2019-04-27T23:12:55.294Z,79.40
2019-04-27T23:15:28.259Z,79.40
2019-04-27T23:17:59.065Z,79.70
2019-04-27T23:20:28.849Z,79.80
2019-04-27T23:22:58.546Z,80.00
2019-04-27T23:25:28.266Z,80.40
2019-04-27T23:27:58.018Z,80.30
2019-04-27T23:30:35.495Z,80.80
2019-04-27T23:33:05.278Z,80.70
2019-04-27T23:35:35.024Z,81.00
2019-04-27T23:38:14.792Z,81.30
2019-04-27T23:40:36.146Z,81.70
2019-04-27T23:43:05.889Z,82.20
2019-04-27T23:45:35.615Z,82.00
2019-04-27T23:48:05.479Z,82.10
2019-04-27T23:50:36.757Z,82.50
2019-04-27T23:53:15.178Z,83.40
2019-04-27T23:55:44.916Z,83.50
2019-04-27T23:58:14.641Z,83.30
